sensor_id;sensor_type;location;lat;lon;timestamp;temperature;humidity
24410;DHT22;12543;53.364;-1.504;2023-04-08T00:01:02;9.30;99.90
24410;DHT22;12543;53.364;-1.504;2023-04-08T00:03:29;9.30;99.90
24410;DHT22;12543;53.364;-1.504;2023-04-08T00:05:57;9.30;99.90
24410;DHT22;12543;53.364;-1.504;2023-04-08T00:08:26;9.30;99.90
24410;DHT22;12543;53.364;-1.504;2023-04-08T00:10:54;9.30;99.90
24410;DHT22;12543;53.364;-1.504;2023-04-08T00:13:21;9.30;99.90
24410;DHT22;12543;53.364;-1.504;2023-04-08T00:15:48;9.30;99.90
24410;DHT22;12543;53.364;-1.504;2023-04-08T00:18:16;9.30;99.90
24410;DHT22;12543;53.364;-1.504;2023-04-08T00:20:43;9.30;99.90
24410;DHT22;12543;53.364;-1.504;2023-04-08T00:23:10;9.30;99.90
24410;DHT22;12543;53.364;-1.504;2023-04-08T00:25:37;9.30;99.90
24410;DHT22;12543;53.364;-1.504;2023-04-08T00:28:04;9.30;99.90
24410;DHT22;12543;53.364;-1.504;2023-04-08T00:30:32;9.30;99.90
24410;DHT22;12543;53.364;-1.504;2023-04-08T00:32:59;9.30;99.90
24410;DHT22;12543;53.364;-1.504;2023-04-08T00:35:27;9.30;99.90
24410;DHT22;12543;53.364;-1.504;2023-04-08T00:37:54;9.30;99.90
24410;DHT22;12543;53.364;-1.504;2023-04-08T00:40:21;9.30;99.90
24410;DHT22;12543;53.364;-1.504;2023-04-08T00:42:49;9.30;99.90
24410;DHT22;12543;53.364;-1.504;2023-04-08T00:45:16;9.30;99.90
24410;DHT22;12543;53.364;-1.504;2023-04-08T00:47:43;9.30;99.90
24410;DHT22;12543;53.364;-1.504;2023-04-08T00:50:18;9.30;99.90
24410;DHT22;12543;53.364;-1.504;2023-04-08T00:52:46;9.40;99.90
24410;DHT22;12543;53.364;-1.504;2023-04-08T00:55:13;9.30;99.90
24410;DHT22;12543;53.364;-1.504;2023-04-08T00:57:40;9.40;99.90
24410;DHT22;12543;53.364;-1.504;2023-04-08T01:00:08;9.40;99.90
24410;DHT22;12543;53.364;-1.504;2023-04-08T01:03:04;9.40;99.90
24410;DHT22;12543;53.364;-1.504;2023-04-08T01:08:13;9.40;99.90
24410;DHT22;12543;53.364;-1.504;2023-04-08T01:10:41;9.40;99.90
24410;DHT22;12543;53.364;-1.504;2023-04-08T01:13:11;9.40;99.90
24410;DHT22;12543;53.364;-1.504;2023-04-08T01:15:41;9.40;99.90
24410;DHT22;12543;53.364;-1.504;2023-04-08T01:18:12;9.40;99.90
24410;DHT22;12543;53.364;-1.504;2023-04-08T01:20:41;9.40;99.90
24410;DHT22;12543;53.364;-1.504;2023-04-08T01:23:24;9.40;99.90
24410;DHT22;12543;53.364;-1.504;2023-04-08T01:25:56;9.40;99.90
24410;DHT22;12543;53.364;-1.504;2023-04-08T01:28:26;9.40;99.90
24410;DHT22;12543;53.364;-1.504;2023-04-08T01:30:56;9.40;99.90
24410;DHT22;12543;53.364;-1.504;2023-04-08T01:33:27;9.40;99.90
24410;DHT22;12543;53.364;-1.504;2023-04-08T01:35:55;9.40;99.90
24410;DHT22;12543;53.364;-1.504;2023-04-08T01:38:23;9.40;99.90
24410;DHT22;12543;53.364;-1.504;2023-04-08T01:40:54;9.30;99.90
24410;DHT22;12543;53.364;-1.504;2023-04-08T01:43:22;9.40;99.90
24410;DHT22;12543;53.364;-1.504;2023-04-08T01:45:50;9.30;99.90
24410;DHT22;12543;53.364;-1.504;2023-04-08T01:48:20;9.30;99.90
24410;DHT22;12543;53.364;-1.504;2023-04-08T01:50:48;9.30;99.90
24410;DHT22;12543;53.364;-1.504;2023-04-08T01:53:17;9.30;99.90
24410;DHT22;12543;53.364;-1.504;2023-04-08T01:55:44;9.30;99.90
24410;DHT22;12543;53.364;-1.504;2023-04-08T01:58:20;9.30;99.90
24410;DHT22;12543;53.364;-1.504;2023-04-08T02:00:48;9.20;99.90
24410;DHT22;12543;53.364;-1.504;2023-04-08T02:03:19;9.20;99.90
24410;DHT22;12543;53.364;-1.504;2023-04-08T02:05:48;9.20;99.90
24410;DHT22;12543;53.364;-1.504;2023-04-08T02:08:15;9.10;99.90
24410;DHT22;12543;53.364;-1.504;2023-04-08T02:10:42;9.10;99.90
24410;DHT22;12543;53.364;-1.504;2023-04-08T02:13:11;9.10;99.90
24410;DHT22;12543;53.364;-1.504;2023-04-08T02:15:42;9.00;99.90
24410;DHT22;12543;53.364;-1.504;2023-04-08T02:18:16;9.00;99.90
24410;DHT22;12543;53.364;-1.504;2023-04-08T02:20:51;9.00;99.90
24410;DHT22;12543;53.364;-1.504;2023-04-08T02:23:21;8.90;99.90
24410;DHT22;12543;53.364;-1.504;2023-04-08T02:25:52;8.90;99.90
24410;DHT22;12543;53.364;-1.504;2023-04-08T02:28:26;8.80;99.90
24410;DHT22;12543;53.364;-1.504;2023-04-08T02:30:56;8.80;99.90
24410;DHT22;12543;53.364;-1.504;2023-04-08T02:33:24;8.70;99.90
24410;DHT22;12543;53.364;-1.504;2023-04-08T02:35:52;8.70;99.90
24410;DHT22;12543;53.364;-1.504;2023-04-08T02:38:22;8.60;99.90
24410;DHT22;12543;53.364;-1.504;2023-04-08T02:40:50;8.60;99.90
24410;DHT22;12543;53.364;-1.504;2023-04-08T02:43:17;8.60;99.90
24410;DHT22;12543;53.364;-1.504;2023-04-08T02:45:45;8.50;99.90
24410;DHT22;12543;53.364;-1.504;2023-04-08T02:48:14;8.50;99.90
24410;DHT22;12543;53.364;-1.504;2023-04-08T02:50:41;8.40;99.90
24410;DHT22;12543;53.364;-1.504;2023-04-08T02:53:08;8.40;99.90
24410;DHT22;12543;53.364;-1.504;2023-04-08T02:55:36;8.40;99.90
24410;DHT22;12543;53.364;-1.504;2023-04-08T02:58:03;8.30;99.90
24410;DHT22;12543;53.364;-1.504;2023-04-08T03:00:30;8.30;99.90
24410;DHT22;12543;53.364;-1.504;2023-04-08T03:02:57;8.30;99.90
24410;DHT22;12543;53.364;-1.504;2023-04-08T03:05:26;8.20;99.90
24410;DHT22;12543;53.364;-1.504;2023-04-08T03:07:53;8.20;99.90
24410;DHT22;12543;53.364;-1.504;2023-04-08T03:10:20;8.10;99.90
24410;DHT22;12543;53.364;-1.504;2023-04-08T03:12:47;8.10;99.90
24410;DHT22;12543;53.364;-1.504;2023-04-08T03:15:14;8.10;99.90
24410;DHT22;12543;53.364;-1.504;2023-04-08T03:17:41;8.10;99.90
24410;DHT22;12543;53.364;-1.504;2023-04-08T03:20:12;8.00;99.90
24410;DHT22;12543;53.364;-1.504;2023-04-08T03:22:39;8.00;99.90
24410;DHT22;12543;53.364;-1.504;2023-04-08T03:25:06;8.00;99.90
24410;DHT22;12543;53.364;-1.504;2023-04-08T03:27:33;8.00;99.90
24410;DHT22;12543;53.364;-1.504;2023-04-08T03:30:00;7.90;99.90
24410;DHT22;12543;53.364;-1.504;2023-04-08T03:32:28;7.90;99.90
24410;DHT22;12543;53.364;-1.504;2023-04-08T03:34:55;7.80;99.90
24410;DHT22;12543;53.364;-1.504;2023-04-08T03:37:22;7.80;99.90
24410;DHT22;12543;53.364;-1.504;2023-04-08T03:39:49;7.80;99.90
24410;DHT22;12543;53.364;-1.504;2023-04-08T03:42:19;7.70;99.90
24410;DHT22;12543;53.364;-1.504;2023-04-08T03:44:47;7.70;99.90
24410;DHT22;12543;53.364;-1.504;2023-04-08T03:47:14;7.70;99.90
24410;DHT22;12543;53.364;-1.504;2023-04-08T03:49:41;7.60;99.90
24410;DHT22;12543;53.364;-1.504;2023-04-08T03:52:08;7.60;99.90
24410;DHT22;12543;53.364;-1.504;2023-04-08T03:54:35;7.60;99.90
24410;DHT22;12543;53.364;-1.504;2023-04-08T03:57:02;7.50;99.90
24410;DHT22;12543;53.364;-1.504;2023-04-08T03:59:29;7.50;99.90
24410;DHT22;12543;53.364;-1.504;2023-04-08T04:01:56;7.50;99.90
24410;DHT22;12543;53.364;-1.504;2023-04-08T04:04:24;7.40;99.90
24410;DHT22;12543;53.364;-1.504;2023-04-08T04:06:51;7.40;99.90
24410;DHT22;12543;53.364;-1.504;2023-04-08T04:09:18;7.40;99.90
24410;DHT22;12543;53.364;-1.504;2023-04-08T04:11:45;7.40;99.90
24410;DHT22;12543;53.364;-1.504;2023-04-08T04:14:12;7.30;99.90
24410;DHT22;12543;53.364;-1.504;2023-04-08T04:16:39;7.30;99.90
24410;DHT22;12543;53.364;-1.504;2023-04-08T04:19:06;7.30;99.90
24410;DHT22;12543;53.364;-1.504;2023-04-08T04:21:33;7.20;99.90
24410;DHT22;12543;53.364;-1.504;2023-04-08T04:24:00;7.20;99.90
24410;DHT22;12543;53.364;-1.504;2023-04-08T04:26:27;7.20;99.90
24410;DHT22;12543;53.364;-1.504;2023-04-08T04:28:54;7.20;99.90
24410;DHT22;12543;53.364;-1.504;2023-04-08T04:31:23;7.10;99.90
24410;DHT22;12543;53.364;-1.504;2023-04-08T04:33:53;7.10;99.90
24410;DHT22;12543;53.364;-1.504;2023-04-08T04:36:20;7.20;99.90
24410;DHT22;12543;53.364;-1.504;2023-04-08T04:38:48;7.10;99.90
24410;DHT22;12543;53.364;-1.504;2023-04-08T04:41:16;7.10;99.90
24410;DHT22;12543;53.364;-1.504;2023-04-08T04:43:43;7.10;99.90
24410;DHT22;12543;53.364;-1.504;2023-04-08T04:46:10;7.10;99.90
24410;DHT22;12543;53.364;-1.504;2023-04-08T04:48:38;7.00;99.90
24410;DHT22;12543;53.364;-1.504;2023-04-08T04:51:05;7.00;99.90
24410;DHT22;12543;53.364;-1.504;2023-04-08T04:53:33;7.00;99.90
24410;DHT22;12543;53.364;-1.504;2023-04-08T04:56:00;7.00;99.90
24410;DHT22;12543;53.364;-1.504;2023-04-08T04:58:28;7.00;99.90
24410;DHT22;12543;53.364;-1.504;2023-04-08T05:00:55;6.90;99.90
24410;DHT22;12543;53.364;-1.504;2023-04-08T05:03:22;6.90;99.90
24410;DHT22;12543;53.364;-1.504;2023-04-08T05:05:52;6.90;99.90
24410;DHT22;12543;53.364;-1.504;2023-04-08T05:08:20;6.90;99.90
24410;DHT22;12543;53.364;-1.504;2023-04-08T05:10:47;6.90;99.90
24410;DHT22;12543;53.364;-1.504;2023-04-08T05:13:17;6.80;99.90
24410;DHT22;12543;53.364;-1.504;2023-04-08T05:15:44;6.80;99.90
24410;DHT22;12543;53.364;-1.504;2023-04-08T05:18:12;6.80;99.90
24410;DHT22;12543;53.364;-1.504;2023-04-08T05:20:39;6.70;99.90
24410;DHT22;12543;53.364;-1.504;2023-04-08T05:23:06;6.70;99.90
24410;DHT22;12543;53.364;-1.504;2023-04-08T05:25:34;6.70;99.90
24410;DHT22;12543;53.364;-1.504;2023-04-08T05:28:02;6.70;99.90
24410;DHT22;12543;53.364;-1.504;2023-04-08T05:30:30;6.70;99.90
24410;DHT22;12543;53.364;-1.504;2023-04-08T05:32:57;6.70;99.90
24410;DHT22;12543;53.364;-1.504;2023-04-08T05:35:27;6.70;99.90
24410;DHT22;12543;53.364;-1.504;2023-04-08T05:37:54;6.60;99.90
24410;DHT22;12543;53.364;-1.504;2023-04-08T05:40:22;6.60;99.90
24410;DHT22;12543;53.364;-1.504;2023-04-08T05:42:49;6.60;99.90
24410;DHT22;12543;53.364;-1.504;2023-04-08T05:45:16;6.60;99.90
24410;DHT22;12543;53.364;-1.504;2023-04-08T05:47:43;6.60;99.90
24410;DHT22;12543;53.364;-1.504;2023-04-08T05:50:10;6.60;99.90
24410;DHT22;12543;53.364;-1.504;2023-04-08T05:52:41;6.60;99.90
24410;DHT22;12543;53.364;-1.504;2023-04-08T05:55:10;6.60;99.90
24410;DHT22;12543;53.364;-1.504;2023-04-08T05:57:37;6.60;99.90
24410;DHT22;12543;53.364;-1.504;2023-04-08T06:00:05;6.60;99.90
24410;DHT22;12543;53.364;-1.504;2023-04-08T06:02:36;6.60;99.90
24410;DHT22;12543;53.364;-1.504;2023-04-08T06:05:03;6.60;99.90
24410;DHT22;12543;53.364;-1.504;2023-04-08T06:07:32;6.60;99.90
24410;DHT22;12543;53.364;-1.504;2023-04-08T06:09:59;6.60;99.90
24410;DHT22;12543;53.364;-1.504;2023-04-08T06:12:26;6.60;99.90
24410;DHT22;12543;53.364;-1.504;2023-04-08T06:14:54;6.60;99.90
24410;DHT22;12543;53.364;-1.504;2023-04-08T06:17:22;6.60;99.90
24410;DHT22;12543;53.364;-1.504;2023-04-08T06:19:49;6.60;99.90
24410;DHT22;12543;53.364;-1.504;2023-04-08T06:22:16;6.60;99.90
24410;DHT22;12543;53.364;-1.504;2023-04-08T06:24:45;6.60;99.90
24410;DHT22;12543;53.364;-1.504;2023-04-08T06:27:12;6.60;99.90
24410;DHT22;12543;53.364;-1.504;2023-04-08T06:29:40;6.60;99.90
24410;DHT22;12543;53.364;-1.504;2023-04-08T06:32:09;6.50;99.90
24410;DHT22;12543;53.364;-1.504;2023-04-08T06:34:36;6.60;99.90
24410;DHT22;12543;53.364;-1.504;2023-04-08T06:37:04;6.60;99.90
24410;DHT22;12543;53.364;-1.504;2023-04-08T06:39:32;6.60;99.90
24410;DHT22;12543;53.364;-1.504;2023-04-08T06:41:59;6.60;99.90
24410;DHT22;12543;53.364;-1.504;2023-04-08T06:44:57;6.70;99.90
24410;DHT22;12543;53.364;-1.504;2023-04-08T06:47:24;6.70;99.90
24410;DHT22;12543;53.364;-1.504;2023-04-08T06:49:51;6.70;99.90
24410;DHT22;12543;53.364;-1.504;2023-04-08T06:52:20;6.70;99.90
24410;DHT22;12543;53.364;-1.504;2023-04-08T06:54:47;6.80;99.90
24410;DHT22;12543;53.364;-1.504;2023-04-08T06:57:14;6.80;99.90
24410;DHT22;12543;53.364;-1.504;2023-04-08T06:59:41;6.90;99.90
24410;DHT22;12543;53.364;-1.504;2023-04-08T07:02:08;6.90;99.90
24410;DHT22;12543;53.364;-1.504;2023-04-08T07:04:35;7.00;99.90
24410;DHT22;12543;53.364;-1.504;2023-04-08T07:07:03;7.00;99.90
24410;DHT22;12543;53.364;-1.504;2023-04-08T07:09:30;7.10;99.90
24410;DHT22;12543;53.364;-1.504;2023-04-08T07:11:58;7.10;99.90
24410;DHT22;12543;53.364;-1.504;2023-04-08T07:14:25;7.20;99.90
24410;DHT22;12543;53.364;-1.504;2023-04-08T07:16:52;7.30;99.90
24410;DHT22;12543;53.364;-1.504;2023-04-08T07:19:20;7.30;99.90
24410;DHT22;12543;53.364;-1.504;2023-04-08T07:21:48;7.40;99.90
24410;DHT22;12543;53.364;-1.504;2023-04-08T07:24:15;7.40;99.90
24410;DHT22;12543;53.364;-1.504;2023-04-08T07:26:42;7.50;99.90
24410;DHT22;12543;53.364;-1.504;2023-04-08T07:29:10;7.60;99.90
24410;DHT22;12543;53.364;-1.504;2023-04-08T07:31:37;7.60;99.90
24410;DHT22;12543;53.364;-1.504;2023-04-08T07:34:04;7.70;99.90
24410;DHT22;12543;53.364;-1.504;2023-04-08T07:36:31;7.70;99.90
24410;DHT22;12543;53.364;-1.504;2023-04-08T07:39:00;7.80;99.90
24410;DHT22;12543;53.364;-1.504;2023-04-08T07:41:27;7.90;99.90
24410;DHT22;12543;53.364;-1.504;2023-04-08T07:43:54;8.00;99.90
24410;DHT22;12543;53.364;-1.504;2023-04-08T07:46:22;8.00;99.90
24410;DHT22;12543;53.364;-1.504;2023-04-08T07:48:50;8.00;99.90
24410;DHT22;12543;53.364;-1.504;2023-04-08T07:51:18;8.10;99.90
24410;DHT22;12543;53.364;-1.504;2023-04-08T07:53:46;8.20;99.90
24410;DHT22;12543;53.364;-1.504;2023-04-08T07:56:14;8.30;99.90
24410;DHT22;12543;53.364;-1.504;2023-04-08T07:58:42;8.30;99.90
24410;DHT22;12543;53.364;-1.504;2023-04-08T08:01:16;8.40;99.90
24410;DHT22;12543;53.364;-1.504;2023-04-08T08:03:44;8.40;99.90
24410;DHT22;12543;53.364;-1.504;2023-04-08T08:06:14;8.50;99.90
24410;DHT22;12543;53.364;-1.504;2023-04-08T08:08:41;8.60;99.90
24410;DHT22;12543;53.364;-1.504;2023-04-08T08:11:08;8.60;99.90
24410;DHT22;12543;53.364;-1.504;2023-04-08T08:13:35;8.60;99.90
24410;DHT22;12543;53.364;-1.504;2023-04-08T08:16:02;8.70;99.90
24410;DHT22;12543;53.364;-1.504;2023-04-08T08:18:29;8.70;99.90
24410;DHT22;12543;53.364;-1.504;2023-04-08T08:20:57;8.70;99.90
24410;DHT22;12543;53.364;-1.504;2023-04-08T08:23:24;8.80;99.90
24410;DHT22;12543;53.364;-1.504;2023-04-08T08:25:58;8.80;99.90
24410;DHT22;12543;53.364;-1.504;2023-04-08T08:28:25;8.90;99.90
24410;DHT22;12543;53.364;-1.504;2023-04-08T08:30:53;9.00;99.90
24410;DHT22;12543;53.364;-1.504;2023-04-08T08:33:20;9.00;99.90
24410;DHT22;12543;53.364;-1.504;2023-04-08T08:35:47;9.10;99.90
24410;DHT22;12543;53.364;-1.504;2023-04-08T08:38:14;9.20;99.90
24410;DHT22;12543;53.364;-1.504;2023-04-08T08:40:44;9.20;99.90
24410;DHT22;12543;53.364;-1.504;2023-04-08T08:43:11;9.30;99.90
24410;DHT22;12543;53.364;-1.504;2023-04-08T08:45:39;9.30;99.90
24410;DHT22;12543;53.364;-1.504;2023-04-08T08:48:07;9.40;99.90
24410;DHT22;12543;53.364;-1.504;2023-04-08T08:50:36;9.40;99.90
24410;DHT22;12543;53.364;-1.504;2023-04-08T08:53:04;9.50;99.90
24410;DHT22;12543;53.364;-1.504;2023-04-08T08:55:31;9.50;99.90
24410;DHT22;12543;53.364;-1.504;2023-04-08T08:58:25;9.60;99.90
24410;DHT22;12543;53.364;-1.504;2023-04-08T09:00:53;9.70;99.90
24410;DHT22;12543;53.364;-1.504;2023-04-08T09:03:24;9.80;99.90
24410;DHT22;12543;53.364;-1.504;2023-04-08T09:10:55;10.20;99.90
24410;DHT22;12543;53.364;-1.504;2023-04-08T09:13:22;10.50;99.90
24410;DHT22;12543;53.364;-1.504;2023-04-08T09:16:07;10.90;99.90
24410;DHT22;12543;53.364;-1.504;2023-04-08T09:18:37;11.50;99.90
24410;DHT22;12543;53.364;-1.504;2023-04-08T09:21:05;12.20;99.90
24410;DHT22;12543;53.364;-1.504;2023-04-08T09:23:44;12.90;99.90
24410;DHT22;12543;53.364;-1.504;2023-04-08T09:26:15;13.70;99.90
24410;DHT22;12543;53.364;-1.504;2023-04-08T09:28:43;14.40;99.90
24410;DHT22;12543;53.364;-1.504;2023-04-08T09:31:19;15.20;99.90
24410;DHT22;12543;53.364;-1.504;2023-04-08T09:33:48;15.80;99.90
24410;DHT22;12543;53.364;-1.504;2023-04-08T09:36:16;16.50;99.90
24410;DHT22;12543;53.364;-1.504;2023-04-08T09:38:44;17.10;99.90
24410;DHT22;12543;53.364;-1.504;2023-04-08T09:41:15;17.50;99.90
24410;DHT22;12543;53.364;-1.504;2023-04-08T09:44:04;18.10;99.90
24410;DHT22;12543;53.364;-1.504;2023-04-08T09:52:01;19.70;99.90
24410;DHT22;12543;53.364;-1.504;2023-04-08T09:54:54;20.20;99.90
24410;DHT22;12543;53.364;-1.504;2023-04-08T09:57:49;20.60;99.90
24410;DHT22;12543;53.364;-1.504;2023-04-08T10:00:17;21.10;99.90
24410;DHT22;12543;53.364;-1.504;2023-04-08T10:02:52;21.40;99.90
24410;DHT22;12543;53.364;-1.504;2023-04-08T10:05:21;21.80;99.90
24410;DHT22;12543;53.364;-1.504;2023-04-08T10:07:49;21.80;99.90
24410;DHT22;12543;53.364;-1.504;2023-04-08T10:10:17;22.00;99.90
24410;DHT22;12543;53.364;-1.504;2023-04-08T10:12:45;22.00;99.90
24410;DHT22;12543;53.364;-1.504;2023-04-08T10:15:32;21.80;99.90
24410;DHT22;12543;53.364;-1.504;2023-04-08T10:23:05;21.70;99.90
24410;DHT22;12543;53.364;-1.504;2023-04-08T10:25:37;21.50;99.90
24410;DHT22;12543;53.364;-1.504;2023-04-08T10:38:38;20.90;99.90
24410;DHT22;12543;53.364;-1.504;2023-04-08T10:41:05;20.70;99.90
24410;DHT22;12543;53.364;-1.504;2023-04-08T10:43:33;20.60;99.90
24410;DHT22;12543;53.364;-1.504;2023-04-08T10:46:01;20.60;99.90
24410;DHT22;12543;53.364;-1.504;2023-04-08T10:48:29;20.80;99.90
24410;DHT22;12543;53.364;-1.504;2023-04-08T10:50:57;21.00;99.90
24410;DHT22;12543;53.364;-1.504;2023-04-08T10:53:31;21.40;99.90
24410;DHT22;12543;53.364;-1.504;2023-04-08T10:56:10;21.60;99.90
24410;DHT22;12543;53.364;-1.504;2023-04-08T10:58:52;22.00;99.90
24410;DHT22;12543;53.364;-1.504;2023-04-08T11:01:20;22.40;99.90
24410;DHT22;12543;53.364;-1.504;2023-04-08T11:03:47;22.70;99.90
24410;DHT22;12543;53.364;-1.504;2023-04-08T11:06:15;22.80;99.90
24410;DHT22;12543;53.364;-1.504;2023-04-08T11:08:44;23.10;99.90
24410;DHT22;12543;53.364;-1.504;2023-04-08T11:11:14;23.30;99.90
24410;DHT22;12543;53.364;-1.504;2023-04-08T11:13:44;23.50;99.90
24410;DHT22;12543;53.364;-1.504;2023-04-08T11:16:22;23.60;99.90
24410;DHT22;12543;53.364;-1.504;2023-04-08T11:18:50;23.80;99.90
24410;DHT22;12543;53.364;-1.504;2023-04-08T11:21:17;23.90;99.90
24410;DHT22;12543;53.364;-1.504;2023-04-08T11:23:44;24.00;99.90
24410;DHT22;12543;53.364;-1.504;2023-04-08T11:26:15;24.10;99.90
24410;DHT22;12543;53.364;-1.504;2023-04-08T11:28:43;24.10;99.90
24410;DHT22;12543;53.364;-1.504;2023-04-08T11:31:11;24.30;99.90
24410;DHT22;12543;53.364;-1.504;2023-04-08T11:33:47;24.40;99.90
24410;DHT22;12543;53.364;-1.504;2023-04-08T11:36:17;24.50;99.90
24410;DHT22;12543;53.364;-1.504;2023-04-08T11:38:44;24.60;99.90
24410;DHT22;12543;53.364;-1.504;2023-04-08T11:41:14;24.60;99.90
24410;DHT22;12543;53.364;-1.504;2023-04-08T11:43:52;24.70;99.90
24410;DHT22;12543;53.364;-1.504;2023-04-08T11:46:20;24.80;99.90
24410;DHT22;12543;53.364;-1.504;2023-04-08T11:49:04;24.90;99.90
24410;DHT22;12543;53.364;-1.504;2023-04-08T11:51:33;24.90;99.90
24410;DHT22;12543;53.364;-1.504;2023-04-08T11:54:04;24.80;99.90
24410;DHT22;12543;53.364;-1.504;2023-04-08T11:56:43;24.80;99.90
24410;DHT22;12543;53.364;-1.504;2023-04-08T11:59:11;24.80;99.90
24410;DHT22;12543;53.364;-1.504;2023-04-08T12:01:38;24.80;99.90
24410;DHT22;12543;53.364;-1.504;2023-04-08T12:04:05;24.80;99.90
24410;DHT22;12543;53.364;-1.504;2023-04-08T12:06:36;24.90;99.90
24410;DHT22;12543;53.364;-1.504;2023-04-08T12:09:03;24.90;99.90
24410;DHT22;12543;53.364;-1.504;2023-04-08T12:11:30;24.80;99.90
24410;DHT22;12543;53.364;-1.504;2023-04-08T12:13:57;24.70;99.90
24410;DHT22;12543;53.364;-1.504;2023-04-08T12:16:24;24.70;99.90
24410;DHT22;12543;53.364;-1.504;2023-04-08T12:18:52;24.80;99.90
24410;DHT22;12543;53.364;-1.504;2023-04-08T12:21:19;24.70;99.90
24410;DHT22;12543;53.364;-1.504;2023-04-08T12:23:46;24.70;99.90
24410;DHT22;12543;53.364;-1.504;2023-04-08T12:26:14;24.60;99.90
24410;DHT22;12543;53.364;-1.504;2023-04-08T12:28:41;24.60;99.90
24410;DHT22;12543;53.364;-1.504;2023-04-08T12:31:08;24.60;99.90
24410;DHT22;12543;53.364;-1.504;2023-04-08T12:33:36;24.60;99.90
24410;DHT22;12543;53.364;-1.504;2023-04-08T12:36:03;24.50;99.90
24410;DHT22;12543;53.364;-1.504;2023-04-08T12:38:30;24.40;99.90
24410;DHT22;12543;53.364;-1.504;2023-04-08T12:40:58;24.20;99.90
24410;DHT22;12543;53.364;-1.504;2023-04-08T12:43:25;24.10;99.90
24410;DHT22;12543;53.364;-1.504;2023-04-08T12:45:52;24.00;99.90
24410;DHT22;12543;53.364;-1.504;2023-04-08T12:48:19;23.80;99.90
24410;DHT22;12543;53.364;-1.504;2023-04-08T12:50:47;23.80;99.90
24410;DHT22;12543;53.364;-1.504;2023-04-08T12:53:14;23.70;99.90
24410;DHT22;12543;53.364;-1.504;2023-04-08T12:55:41;23.70;99.90
24410;DHT22;12543;53.364;-1.504;2023-04-08T12:58:10;23.70;99.90
24410;DHT22;12543;53.364;-1.504;2023-04-08T13:00:37;23.60;99.90
24410;DHT22;12543;53.364;-1.504;2023-04-08T13:03:04;23.50;99.90
24410;DHT22;12543;53.364;-1.504;2023-04-08T13:05:32;23.40;99.90
24410;DHT22;12543;53.364;-1.504;2023-04-08T13:08:10;23.20;99.90
24410;DHT22;12543;53.364;-1.504;2023-04-08T13:10:41;23.10;99.90
24410;DHT22;12543;53.364;-1.504;2023-04-08T13:13:09;23.00;99.90
24410;DHT22;12543;53.364;-1.504;2023-04-08T13:15:37;23.10;99.90
24410;DHT22;12543;53.364;-1.504;2023-04-08T13:18:04;23.20;99.90
24410;DHT22;12543;53.364;-1.504;2023-04-08T13:20:31;23.30;99.90
24410;DHT22;12543;53.364;-1.504;2023-04-08T13:22:59;23.40;99.90
24410;DHT22;12543;53.364;-1.504;2023-04-08T13:25:26;23.40;99.90
24410;DHT22;12543;53.364;-1.504;2023-04-08T13:27:54;23.30;99.90
24410;DHT22;12543;53.364;-1.504;2023-04-08T13:30:21;23.20;99.90
24410;DHT22;12543;53.364;-1.504;2023-04-08T13:32:48;23.00;99.90
24410;DHT22;12543;53.364;-1.504;2023-04-08T13:35:15;22.80;99.90
24410;DHT22;12543;53.364;-1.504;2023-04-08T13:37:42;22.50;97.90
24410;DHT22;12543;53.364;-1.504;2023-04-08T13:40:10;22.30;99.00
24410;DHT22;12543;53.364;-1.504;2023-04-08T13:42:37;22.00;95.10
24410;DHT22;12543;53.364;-1.504;2023-04-08T13:45:05;21.70;98.50
24410;DHT22;12543;53.364;-1.504;2023-04-08T13:47:32;21.50;97.80
24410;DHT22;12543;53.364;-1.504;2023-04-08T13:50:03;21.20;97.10
24410;DHT22;12543;53.364;-1.504;2023-04-08T13:52:30;21.00;95.60
24410;DHT22;12543;53.364;-1.504;2023-04-08T13:54:57;20.80;98.20
24410;DHT22;12543;53.364;-1.504;2023-04-08T13:57:24;20.60;98.20
24410;DHT22;12543;53.364;-1.504;2023-04-08T13:59:51;20.50;97.50
24410;DHT22;12543;53.364;-1.504;2023-04-08T14:02:18;20.40;99.00
24410;DHT22;12543;53.364;-1.504;2023-04-08T14:04:45;20.30;99.60
24410;DHT22;12543;53.364;-1.504;2023-04-08T14:07:13;20.20;99.60
24410;DHT22;12543;53.364;-1.504;2023-04-08T14:09:40;20.10;97.50
24410;DHT22;12543;53.364;-1.504;2023-04-08T14:12:07;20.00;99.30
24410;DHT22;12543;53.364;-1.504;2023-04-08T14:14:34;19.90;99.90
24410;DHT22;12543;53.364;-1.504;2023-04-08T14:17:01;19.90;99.80
24410;DHT22;12543;53.364;-1.504;2023-04-08T14:19:29;19.80;99.90
24410;DHT22;12543;53.364;-1.504;2023-04-08T14:21:56;19.70;99.10
24410;DHT22;12543;53.364;-1.504;2023-04-08T14:24:23;19.60;98.10
24410;DHT22;12543;53.364;-1.504;2023-04-08T14:26:50;19.40;95.20
24410;DHT22;12543;53.364;-1.504;2023-04-08T14:29:17;19.30;96.90
24410;DHT22;12543;53.364;-1.504;2023-04-08T14:31:44;19.20;96.50
24410;DHT22;12543;53.364;-1.504;2023-04-08T14:34:11;19.10;97.80
24410;DHT22;12543;53.364;-1.504;2023-04-08T14:36:38;19.00;96.10
24410;DHT22;12543;53.364;-1.504;2023-04-08T14:39:05;18.80;95.60
24410;DHT22;12543;53.364;-1.504;2023-04-08T14:41:32;18.80;97.90
24410;DHT22;12543;53.364;-1.504;2023-04-08T14:43:59;18.70;97.70
24410;DHT22;12543;53.364;-1.504;2023-04-08T14:46:26;18.60;97.80
24410;DHT22;12543;53.364;-1.504;2023-04-08T14:48:54;18.60;97.50
24410;DHT22;12543;53.364;-1.504;2023-04-08T14:51:22;18.50;97.40
24410;DHT22;12543;53.364;-1.504;2023-04-08T14:53:49;18.50;96.40
24410;DHT22;12543;53.364;-1.504;2023-04-08T14:56:16;18.30;96.60
24410;DHT22;12543;53.364;-1.504;2023-04-08T14:58:43;18.20;94.80
24410;DHT22;12543;53.364;-1.504;2023-04-08T15:01:10;18.20;97.30
24410;DHT22;12543;53.364;-1.504;2023-04-08T15:03:37;18.10;96.80
24410;DHT22;12543;53.364;-1.504;2023-04-08T15:06:05;18.10;97.10
24410;DHT22;12543;53.364;-1.504;2023-04-08T15:08:32;18.10;98.30
24410;DHT22;12543;53.364;-1.504;2023-04-08T15:11:00;18.10;96.70
24410;DHT22;12543;53.364;-1.504;2023-04-08T15:13:27;18.00;98.70
24410;DHT22;12543;53.364;-1.504;2023-04-08T15:15:54;18.00;98.70
24410;DHT22;12543;53.364;-1.504;2023-04-08T15:18:22;18.00;98.20
24410;DHT22;12543;53.364;-1.504;2023-04-08T15:20:49;18.00;97.70
24410;DHT22;12543;53.364;-1.504;2023-04-08T15:23:16;17.90;97.60
24410;DHT22;12543;53.364;-1.504;2023-04-08T15:25:43;17.80;96.40
24410;DHT22;12543;53.364;-1.504;2023-04-08T15:28:10;17.70;98.70
24410;DHT22;12543;53.364;-1.504;2023-04-08T15:30:37;17.60;97.00
24410;DHT22;12543;53.364;-1.504;2023-04-08T15:33:04;17.50;96.80
24410;DHT22;12543;53.364;-1.504;2023-04-08T15:35:32;17.40;95.70
24410;DHT22;12543;53.364;-1.504;2023-04-08T15:37:59;17.30;97.80
24410;DHT22;12543;53.364;-1.504;2023-04-08T15:40:26;17.20;95.90
24410;DHT22;12543;53.364;-1.504;2023-04-08T15:42:54;17.00;96.40
24410;DHT22;12543;53.364;-1.504;2023-04-08T15:45:21;16.90;98.10
24410;DHT22;12543;53.364;-1.504;2023-04-08T15:47:51;16.80;98.60
24410;DHT22;12543;53.364;-1.504;2023-04-08T15:50:19;16.70;99.10
24410;DHT22;12543;53.364;-1.504;2023-04-08T15:52:46;16.70;98.20
24410;DHT22;12543;53.364;-1.504;2023-04-08T15:55:13;16.60;97.80
24410;DHT22;12543;53.364;-1.504;2023-04-08T15:57:40;16.50;97.60
24410;DHT22;12543;53.364;-1.504;2023-04-08T16:00:10;16.40;99.00
24410;DHT22;12543;53.364;-1.504;2023-04-08T16:02:39;16.30;99.30